Time;durP1;ratioP1;P1;durP2;ratioP2;P2;SDS_P1;SDS_P2;PMS_P1;PMS_P2;Temp;Humidity;BMP_temperature;BMP_pressure;BME280_temperature;BME280_humidity;BME280_pressure;Samples;Min_cycle;Max_cycle;Signal;HPM_P1;HPM_P2
2022/08/22 00:00:25;;;;;;;3.93;2.80;;;16.50;99.90;;;;;;5054008;28;20228;-57
2022/08/22 00:03:17;;;;;;;4.70;2.75;;;16.40;99.90;;;;;;5054281;28;20576;-57
2022/08/22 00:05:56;;;;;;;4.45;2.40;;;16.30;99.90;;;;;;5053593;28;20264;-57
2022/08/22 00:08:31;;;;;;;4.90;2.70;;;16.20;99.90;;;;;;5054009;28;20233;-58
2022/08/22 00:11:07;;;;;;;2.77;2.40;;;16.10;99.90;;;;;;5054011;28;20206;-58
2022/08/22 00:13:40;;;;;;;4.17;2.90;;;16.10;99.90;;;;;;5053911;28;20220;-58
2022/08/22 00:16:13;;;;;;;3.43;2.63;;;16.10;99.90;;;;;;5054157;28;20252;-58
2022/08/22 00:18:45;;;;;;;2.83;2.50;;;16.10;99.90;;;;;;5053881;28;20624;-57
2022/08/22 00:21:15;;;;;;;6.07;2.73;;;16.00;99.90;;;;;;5053855;28;20263;-58
2022/08/22 00:23:47;;;;;;;4.20;2.80;;;16.00;99.90;;;;;;5053870;28;20205;-58
2022/08/22 00:26:27;;;;;;;4.20;2.80;;;16.10;99.90;;;;;;5053663;28;20702;-58
2022/08/22 00:29:00;;;;;;;4.30;2.70;;;16.10;99.90;;;;;;5053647;28;20229;-58
2022/08/22 00:31:32;;;;;;;4.67;2.83;;;16.00;99.90;;;;;;5054267;28;20206;-58
2022/08/22 00:34:03;;;;;;;6.60;3.23;;;15.90;99.90;;;;;;5053091;28;20213;-58
2022/08/22 00:36:35;;;;;;;4.20;2.80;;;16.00;99.90;;;;;;5053250;28;20688;-58
2022/08/22 00:39:10;;;;;;;5.13;3.00;;;15.90;99.90;;;;;;5053312;28;20250;-58
2022/08/22 00:41:55;;;;;;;6.43;3.10;;;15.90;99.90;;;;;;5053563;28;20209;-58
2022/08/22 00:44:52;;;;;;;4.90;2.90;;;16.00;99.90;;;;;;5052676;28;20217;-57
2022/08/22 00:47:45;;;;;;;4.33;3.13;;;15.90;99.90;;;;;;5047199;28;20230;-57
2022/08/22 00:50:30;;;;;;;4.93;2.88;;;15.90;99.90;;;;;;5052780;28;20558;-57
2022/08/22 00:53:27;;;;;;;4.40;2.43;;;15.90;99.90;;;;;;5052651;28;20296;-58
2022/08/22 00:56:09;;;;;;;4.30;2.90;;;15.80;99.90;;;;;;5052836;28;20611;-58
2022/08/22 00:58:54;;;;;;;5.23;2.70;;;15.80;99.90;;;;;;5052538;28;20233;-58
2022/08/22 01:01:28;;;;;;;5.03;3.20;;;15.70;99.90;;;;;;5052877;28;20240;-58
2022/08/22 01:04:23;;;;;;;5.13;2.40;;;15.70;99.90;;;;;;5052618;28;20209;-58
2022/08/22 01:07:02;;;;;;;4.67;3.03;;;15.70;99.90;;;;;;5052415;28;20197;-58
2022/08/22 01:09:42;;;;;;;4.00;2.77;;;15.70;99.90;;;;;;5052608;28;20205;-58
2022/08/22 01:12:24;;;;;;;4.17;2.90;;;15.70;99.90;;;;;;5052526;28;20688;-58
2022/08/22 01:14:59;;;;;;;5.50;2.80;;;15.60;99.90;;;;;;5052318;28;20217;-57
2022/08/22 01:17:54;;;;;;;4.63;3.10;;;15.50;99.90;;;;;;5051823;28;20263;-58
2022/08/22 01:21:01;;;;;;;5.20;3.10;;;15.50;99.90;;;;;;5052250;28;20697;-58
2022/08/22 01:24:04;;;;;;;3.80;2.80;;;15.50;99.90;;;;;;5052044;28;20296;-58
2022/08/22 01:27:06;;;;;;;3.97;2.97;;;15.40;99.90;;;;;;5050770;28;20239;-58
2022/08/22 01:30:07;;;;;;;5.80;2.80;;;15.50;99.90;;;;;;5045341;28;20201;-57
2022/08/22 01:33:17;;;;;;;2.83;2.27;;;15.40;99.90;;;;;;5050952;28;20237;-58
2022/08/22 01:36:07;;;;;;;4.60;2.93;;;15.50;99.90;;;;;;5052425;28;20213;-58
2022/08/22 01:38:54;;;;;;;6.33;3.60;;;15.50;99.90;;;;;;5052003;28;20236;-58
2022/08/22 01:41:50;;;;;;;5.57;2.77;;;15.60;99.90;;;;;;5052021;28;20665;-58
2022/08/22 01:44:46;;;;;;;4.77;2.50;;;15.50;99.90;;;;;;5051667;28;20217;-58
2022/08/22 01:47:17;;;;;;;3.87;2.57;;;15.50;99.90;;;;;;5051929;28;20229;-58
2022/08/22 01:49:48;;;;;;;4.87;3.17;;;15.50;99.90;;;;;;5052040;28;20256;-58
2022/08/22 01:52:29;;;;;;;5.70;3.60;;;15.40;99.90;;;;;;5052043;28;20221;-58
2022/08/22 01:55:01;;;;;;;3.70;3.03;;;15.40;99.90;;;;;;5051503;28;20577;-58
2022/08/22 01:57:28;;;;;;;4.27;2.77;;;15.30;99.90;;;;;;5051963;28;20225;-58
2022/08/22 02:00:00;;;;;;;3.53;3.00;;;15.30;99.90;;;;;;5052033;28;20650;-58
2022/08/22 02:02:41;;;;;;;5.53;3.43;;;15.20;99.90;;;;;;5051969;28;20200;-57
2022/08/22 02:05:18;;;;;;;3.93;3.00;;;15.20;99.90;;;;;;5051772;28;20680;-58
2022/08/22 02:07:51;;;;;;;4.40;3.30;;;15.30;99.90;;;;;;5051659;28;20265;-58
2022/08/22 02:10:24;;;;;;;5.03;2.90;;;15.30;99.90;;;;;;5051692;28;20205;-58
2022/08/22 02:13:02;;;;;;;6.63;3.70;;;15.30;99.90;;;;;;5051510;28;20210;-58
2022/08/22 02:15:43;;;;;;;4.47;3.10;;;15.30;99.90;;;;;;5051623;28;20244;-58
2022/08/22 02:18:16;;;;;;;5.40;3.30;;;15.30;99.90;;;;;;5051743;28;20286;-58
2022/08/22 02:20:57;;;;;;;4.83;3.50;;;15.20;99.90;;;;;;5051864;28;20221;-58
2022/08/22 02:23:33;;;;;;;4.97;3.00;;;15.20;99.90;;;;;;5051324;28;20632;-58
2022/08/22 02:26:09;;;;;;;4.03;3.03;;;15.10;99.90;;;;;;5051955;28;20219;-57
2022/08/22 02:28:43;;;;;;;3.57;2.97;;;15.10;99.90;;;;;;5051838;28;20231;-58
2022/08/22 02:31:13;;;;;;;5.67;3.10;;;15.10;99.90;;;;;;5055553;28;20224;-58
2022/08/22 02:33:49;;;;;;;3.83;3.27;;;15.00;99.90;;;;;;5055552;28;20305;-58
2022/08/22 02:36:21;;;;;;;5.27;2.97;;;15.00;99.90;;;;;;5055674;28;20300;-58
2022/08/22 02:39:12;;;;;;;6.03;3.40;;;14.90;99.90;;;;;;5055205;28;20229;-58
2022/08/22 02:41:50;;;;;;;5.07;3.03;;;14.90;99.90;;;;;;5055602;28;20201;-58
2022/08/22 02:44:24;;;;;;;6.03;3.57;;;14.80;99.90;;;;;;5055023;28;20202;-58
2022/08/22 02:46:55;;;;;;;5.67;3.33;;;14.70;99.90;;;;;;5055116;28;20244;-58
2022/08/22 02:49:41;;;;;;;3.83;3.27;;;14.70;99.90;;;;;;5055356;28;20190;-58
2022/08/22 02:52:16;;;;;;;4.63;3.40;;;14.70;99.90;;;;;;5055188;28;20380;-58
2022/08/22 02:54:53;;;;;;;4.10;3.20;;;14.80;99.90;;;;;;5055148;28;20213;-57
2022/08/22 02:57:26;;;;;;;5.77;3.37;;;14.80;99.90;;;;;;5054932;28;20229;-58
2022/08/22 03:00:12;;;;;;;5.13;3.63;;;14.80;99.90;;;;;;5055298;28;20236;-58
2022/08/22 03:02:58;;;;;;;4.53;3.27;;;14.80;99.90;;;;;;5055035;28;20263;-58
2022/08/22 03:05:29;;;;;;;4.03;3.10;;;14.80;99.90;;;;;;5054817;28;20209;-58
2022/08/22 03:08:03;;;;;;;4.40;3.30;;;14.80;99.90;;;;;;5054779;28;20241;-58
2022/08/22 03:10:36;;;;;;;5.37;3.23;;;14.80;99.90;;;;;;5054678;28;20661;-57
2022/08/22 03:13:10;;;;;;;5.03;3.50;;;14.70;99.90;;;;;;5054581;28;20215;-58
2022/08/22 03:15:42;;;;;;;5.40;3.33;;;14.70;99.90;;;;;;5054818;28;20623;-58
2022/08/22 03:18:20;;;;;;;6.33;5.00;;;14.70;99.90;;;;;;5054485;28;20577;-58
2022/08/22 03:20:59;;;;;;;4.67;3.30;;;14.70;99.90;;;;;;5054589;28;20232;-57
2022/08/22 03:23:35;;;;;;;6.30;3.40;;;14.80;99.90;;;;;;5054395;28;20255;-57
2022/08/22 03:26:12;;;;;;;5.33;3.20;;;14.80;99.90;;;;;;5054954;28;20216;-58
2022/08/22 03:28:46;;;;;;;4.17;3.57;;;14.70;99.90;;;;;;5054762;28;20228;-58
2022/08/22 03:31:15;;;;;;;5.17;3.20;;;14.70;99.90;;;;;;5054516;28;20259;-58
2022/08/22 03:33:43;;;;;;;5.50;3.30;;;14.70;99.90;;;;;;5054046;28;20209;-58
2022/08/22 03:36:24;;;;;;;4.87;3.60;;;14.60;99.90;;;;;;5054329;28;20228;-58
2022/08/22 03:39:04;;;;;;;5.93;3.80;;;14.60;99.90;;;;;;5054107;28;20222;-58
2022/08/22 03:41:54;;;;;;;5.20;3.50;;;14.60;99.90;;;;;;5054039;28;20313;-58
2022/08/22 03:44:56;;;;;;;6.93;3.57;;;14.60;99.90;;;;;;5053956;28;20206;-58
2022/08/22 03:47:58;;;;;;;4.87;3.20;;;14.60;99.90;;;;;;5052373;28;20225;-58
2022/08/22 03:50:59;;;;;;;5.77;3.43;;;14.60;99.90;;;;;;5054117;28;20668;-58
2022/08/22 03:53:45;;;;;;;5.00;3.73;;;14.70;99.90;;;;;;5053509;28;20254;-58
2022/08/22 03:56:29;;;;;;;4.87;3.33;;;14.60;99.90;;;;;;5053936;28;20213;-58
2022/08/22 03:59:15;;;;;;;4.93;3.50;;;14.70;99.90;;;;;;5053790;28;20209;-57
2022/08/22 04:02:16;;;;;;;6.20;3.80;;;14.70;99.90;;;;;;5054081;28;20230;-58
2022/08/22 04:05:14;;;;;;;4.77;3.77;;;14.70;99.90;;;;;;5051695;28;20229;-57
2022/08/22 04:08:10;;;;;;;7.13;3.90;;;14.70;99.90;;;;;;5077238;22;20261;-57
2022/08/22 04:11:14;;;;;;;6.47;4.07;;;14.60;99.90;;;;;;5054016;28;20198;-57
2022/08/22 04:13:59;;;;;;;7.20;3.63;;;14.60;99.90;;;;;;5053970;28;20227;-57
2022/08/22 04:16:59;;;;;;;6.47;3.50;;;14.50;99.90;;;;;;5054229;28;20672;-57
2022/08/22 04:19:53;;;;;;;7.13;4.77;;;14.50;99.90;;;;;;5013793;28;20642;-57
2022/08/22 04:22:39;;;;;;;5.57;4.50;;;14.50;99.90;;;;;;5034138;28;20374;-57
2022/08/22 04:25:09;;;;;;;4.83;4.03;;;14.60;99.90;;;;;;5034014;28;20471;-57
2022/08/22 04:27:43;;;;;;;7.40;4.40;;;14.60;99.90;;;;;;5034388;28;20302;-57
2022/08/22 04:30:24;;;;;;;5.40;3.70;;;14.70;99.90;;;;;;5034256;28;20464;-57
2022/08/22 04:33:00;;;;;;;5.20;3.73;;;14.70;99.90;;;;;;5033884;28;20632;-57
2022/08/22 04:35:32;;;;;;;4.23;3.70;;;14.70;99.90;;;;;;5033756;28;20206;-57
2022/08/22 04:38:05;;;;;;;5.67;3.70;;;14.70;99.90;;;;;;5034107;28;20241;-58
2022/08/22 04:40:38;;;;;;;6.83;4.20;;;14.80;99.90;;;;;;5034003;28;20245;-58
2022/08/22 04:43:14;;;;;;;8.80;6.27;;;14.70;99.90;;;;;;5033436;28;20225;-58
2022/08/22 04:45:46;;;;;;;6.00;4.67;;;14.80;99.90;;;;;;5033608;28;20206;-58
2022/08/22 04:48:21;;;;;;;7.57;4.07;;;14.80;99.90;;;;;;5033515;28;20230;-58
2022/08/22 04:50:53;;;;;;;5.40;3.33;;;14.80;99.90;;;;;;5033759;28;20206;-58
2022/08/22 04:53:39;;;;;;;6.03;3.70;;;14.70;99.90;;;;;;5032862;28;20230;-58
2022/08/22 04:56:10;;;;;;;5.03;3.57;;;14.80;99.90;;;;;;5033610;28;20236;-58
2022/08/22 04:58:45;;;;;;;6.03;3.50;;;14.90;99.90;;;;;;5033713;28;20647;-58
2022/08/22 05:01:18;;;;;;;8.27;3.63;;;15.00;99.90;;;;;;5033319;28;20264;-58
2022/08/22 05:03:52;;;;;;;5.70;3.90;;;15.10;99.90;;;;;;5033124;28;20210;-58
2022/08/22 05:06:25;;;;;;;5.83;3.90;;;15.10;99.90;;;;;;5033458;28;20193;-58
2022/08/22 05:08:53;;;;;;;4.13;3.63;;;15.10;99.90;;;;;;5033074;28;20252;-58
2022/08/22 05:11:22;;;;;;;4.33;3.43;;;15.20;99.90;;;;;;5033554;28;20210;-58
2022/08/22 05:13:53;;;;;;;7.33;4.00;;;15.40;99.90;;;;;;5033126;28;20206;-58
2022/08/22 05:16:24;;;;;;;5.47;4.13;;;15.50;99.90;;;;;;5033157;28;20216;-58
2022/08/22 05:18:58;;;;;;;4.27;3.60;;;15.50;99.90;;;;;;5033084;28;20316;-58
2022/08/22 05:21:31;;;;;;;4.93;3.53;;;15.50;99.90;;;;;;5032891;28;20232;-58
2022/08/22 05:24:02;;;;;;;5.60;4.00;;;15.60;99.90;;;;;;5032813;28;20191;-58
2022/08/22 05:26:33;;;;;;;5.80;3.87;;;15.60;99.90;;;;;;5032962;28;20206;-58
2022/08/22 05:29:06;;;;;;;5.50;3.83;;;15.70;99.90;;;;;;5033105;28;20296;-58
2022/08/22 05:31:37;;;;;;;7.40;4.10;;;15.80;99.90;;;;;;5033049;28;20206;-58
2022/08/22 05:34:10;;;;;;;7.53;3.70;;;15.80;99.90;;;;;;5032666;28;20238;-58
2022/08/22 05:36:40;;;;;;;5.00;3.53;;;15.90;99.90;;;;;;5032788;28;20206;-58
2022/08/22 05:39:13;;;;;;;5.33;4.30;;;16.00;99.90;;;;;;5032733;28;20741;-58
2022/08/22 05:41:41;;;;;;;6.13;3.57;;;16.20;99.90;;;;;;5032463;28;20249;-58
2022/08/22 05:44:20;;;;;;;8.43;3.90;;;16.40;99.90;;;;;;5032111;28;20206;-58
2022/08/22 05:46:50;;;;;;;5.65;3.40;;;17.00;99.90;;;;;;5032763;28;20280;-58
2022/08/22 05:49:22;;;;;;;4.35;3.38;;;18.60;99.90;;;;;;5032636;28;20584;-58
2022/08/22 05:51:58;;;;;;;6.45;3.50;;;20.40;99.90;;;;;;5032478;28;20621;-58
2022/08/22 05:54:32;;;;;;;5.38;3.40;;;22.10;99.90;;;;;;5032288;28;20300;-58
2022/08/22 05:57:07;;;;;;;4.50;3.20;;;23.30;99.90;;;;;;5032380;28;20320;-58
2022/08/22 05:59:38;;;;;;;4.60;3.00;;;24.20;99.90;;;;;;5032741;28;20242;-58
2022/08/22 06:02:09;;;;;;;4.82;3.03;;;24.90;99.90;;;;;;5032417;28;20230;-58
2022/08/22 06:04:45;;;;;;;5.63;3.53;;;25.80;98.70;;;;;;5034780;28;20221;-58
2022/08/22 06:07:18;;;;;;;4.32;3.13;;;26.60;95.60;;;;;;5036078;28;20284;-58
2022/08/22 06:10:08;;;;;;;6.57;3.47;;;27.30;93.70;;;;;;5036472;28;20206;-58
2022/08/22 06:12:39;;;;;;;4.07;3.00;;;28.20;90.80;;;;;;5036248;28;20668;-58
2022/08/22 06:15:16;;;;;;;4.53;3.15;;;29.10;85.80;;;;;;5036036;28;20221;-58
2022/08/22 06:17:48;;;;;;;7.53;3.15;;;29.50;83.20;;;;;;5036060;28;20225;-59
2022/08/22 06:20:19;;;;;;;4.43;2.90;;;29.80;80.20;;;;;;5036210;28;20213;-59
2022/08/22 06:22:52;;;;;;;5.05;2.67;;;30.20;77.10;;;;;;5036117;28;20210;-58
2022/08/22 06:25:24;;;;;;;6.35;2.88;;;30.50;75.40;;;;;;5035849;28;20210;-58
2022/08/22 06:27:52;;;;;;;3.58;2.85;;;30.20;74.10;;;;;;5035849;28;20233;-58
2022/08/22 06:30:20;;;;;;;7.38;2.88;;;30.20;73.30;;;;;;5036127;28;20206;-58
2022/08/22 06:32:51;;;;;;;2.90;2.53;;;30.40;72.80;;;;;;5036161;28;20218;-58
2022/08/22 06:35:24;;;;;;;6.70;2.90;;;30.80;71.60;;;;;;5035758;28;20293;-58
2022/08/22 06:37:52;;;;;;;7.05;2.72;;;31.10;70.00;;;;;;5035713;28;20222;-58
2022/08/22 06:40:19;;;;;;;3.67;2.80;;;31.40;68.70;;;;;;5035580;28;20205;-58
2022/08/22 06:42:50;;;;;;;2.65;2.40;;;31.80;67.20;;;;;;5035919;28;20209;-58
2022/08/22 06:45:21;;;;;;;4.75;2.78;;;32.10;65.70;;;;;;5035591;28;20214;-59
2022/08/22 06:47:51;;;;;;;4.63;2.95;;;32.20;64.40;;;;;;5036106;28;20257;-59
2022/08/22 06:50:24;;;;;;;5.90;4.13;;;32.20;64.40;;;;;;5035267;28;20202;-58
2022/08/22 06:52:56;;;;;;;4.90;3.00;;;32.70;63.00;;;;;;5035442;28;20739;-58
2022/08/22 06:55:26;;;;;;;2.90;2.50;;;33.40;61.50;;;;;;5034970;28;20217;-59
2022/08/22 06:57:57;;;;;;;2.97;2.55;;;33.90;59.70;;;;;;5035007;28;20226;-59
2022/08/22 07:00:25;;;;;;;3.38;2.40;;;34.60;57.90;;;;;;5035430;28;20320;-59
2022/08/22 07:02:56;;;;;;;3.97;2.30;;;34.80;55.90;;;;;;5035116;28;20214;-58
2022/08/22 07:05:27;;;;;;;3.97;2.70;;;34.20;56.20;;;;;;5035030;28;20305;-58
2022/08/22 07:07:55;;;;;;;3.10;2.20;;;33.70;57.20;;;;;;5034895;28;20287;-58
2022/08/22 07:10:24;;;;;;;4.45;2.40;;;33.10;58.00;;;;;;5035015;28;20201;-58
2022/08/22 07:12:53;;;;;;;2.70;2.13;;;32.70;58.60;;;;;;5035128;28;20202;-58
2022/08/22 07:15:31;;;;;;;5.22;2.80;;;32.60;59.10;;;;;;5033894;28;20210;-58
2022/08/22 07:18:00;;;;;;;5.47;2.35;;;32.90;58.70;;;;;;5034542;28;20663;-59
2022/08/22 07:20:33;;;;;;;3.40;2.50;;;33.40;57.30;;;;;;5034888;28;20218;-58
2022/08/22 07:23:03;;;;;;;3.88;2.53;;;33.90;56.90;;;;;;5034819;28;20277;-58
2022/08/22 07:25:31;;;;;;;3.75;2.47;;;33.80;56.40;;;;;;5034615;28;20213;-58
2022/08/22 07:28:21;;;;;;;4.22;2.60;;;34.00;55.90;;;;;;5034589;28;20277;-58
2022/08/22 07:30:55;;;;;;;4.22;2.70;;;34.40;54.50;;;;;;5034718;28;20584;-59
2022/08/22 07:33:43;;;;;;;3.60;2.67;;;34.50;53.90;;;;;;5034588;28;20693;-59
2022/08/22 07:36:29;;;;;;;6.22;2.72;;;34.70;53.50;;;;;;5034597;28;20206;-59
2022/08/22 07:39:09;;;;;;;3.30;2.25;;;35.40;52.90;;;;;;5034381;28;20226;-59
2022/08/22 07:41:46;;;;;;;3.03;2.50;;;35.90;51.50;;;;;;5034417;28;20222;-59
2022/08/22 07:44:17;;;;;;;3.47;2.55;;;36.40;50.60;;;;;;5034320;28;20202;-59
2022/08/22 07:46:52;;;;;;;3.75;2.45;;;36.70;49.50;;;;;;5034405;28;20256;-59
2022/08/22 07:49:24;;;;;;;3.85;2.38;;;36.80;49.20;;;;;;5034909;28;20600;-60
2022/08/22 07:51:55;;;;;;;2.95;2.22;;;36.50;49.50;;;;;;5034547;28;20750;-58
2022/08/22 07:54:26;;;;;;;3.88;2.40;;;36.20;50.00;;;;;;5034436;28;20214;-59
2022/08/22 07:57:02;;;;;;;2.97;2.40;;;35.70;50.30;;;;;;5034319;28;20210;-58
2022/08/22 07:59:31;;;;;;;2.90;2.60;;;35.80;50.70;;;;;;5034434;28;20206;-58
2022/08/22 08:02:00;;;;;;;4.88;2.70;;;36.00;51.20;;;;;;5034478;28;20590;-59
2022/08/22 08:04:31;;;;;;;4.35;2.72;;;36.10;50.40;;;;;;5034201;28;20578;-59
2022/08/22 08:07:02;;;;;;;2.40;2.20;;;36.00;50.00;;;;;;5034321;28;20257;-59
2022/08/22 08:09:32;;;;;;;3.38;2.50;;;35.80;50.20;;;;;;5034059;28;20582;-59
2022/08/22 08:12:01;;;;;;;3.15;2.65;;;35.70;50.50;;;;;;5034003;28;20202;-59
2022/08/22 08:14:30;;;;;;;2.75;2.50;;;35.70;50.40;;;;;;5034421;28;20202;-58
2022/08/22 08:17:02;;;;;;;3.20;2.70;;;35.70;50.40;;;;;;5031734;28;20492;-59
2022/08/22 08:19:30;;;;;;;3.53;2.92;;;35.70;50.30;;;;;;5033839;28;20195;-66
2022/08/22 08:21:59;;;;;;;4.00;2.80;;;35.70;50.50;;;;;;5033455;28;20801;-64
2022/08/22 08:24:31;;;;;;;4.95;3.15;;;35.00;51.40;;;;;;5033993;28;20591;-63
2022/08/22 08:29:54;;;;;;;4.20;3.22;;;31.40;57.80;;;;;;5034980;28;20292;-64
2022/08/22 08:32:22;;;;;;;3.15;2.78;;;29.70;61.30;;;;;;5035627;28;20206;-62
2022/08/22 08:34:51;;;;;;;3.88;3.08;;;28.70;64.50;;;;;;5033354;28;20242;-61
2022/08/22 08:37:27;;;;;;;3.95;3.15;;;27.90;67.50;;;;;;5032662;28;20226;-60
2022/08/22 08:39:57;;;;;;;3.13;2.83;;;27.20;70.30;;;;;;5033259;28;20206;-63
2022/08/22 08:45:57;;;;;;;4.82;3.13;;;26.00;75.30;;;;;;5031587;28;20209;-60
2022/08/22 08:48:57;;;;;;;5.50;3.47;;;25.70;77.90;;;;;;5028118;28;20226;-62
2022/08/22 08:51:46;;;;;;;4.88;3.40;;;25.50;80.30;;;;;;5011514;28;20200;-61
2022/08/22 08:54:54;;;;;;;5.53;3.22;;;25.40;81.90;;;;;;5012340;28;20393;-62
2022/08/22 08:57:36;;;;;;;4.30;3.35;;;25.40;83.40;;;;;;5002423;28;20227;-61
2022/08/22 09:00:09;;;;;;;4.28;3.88;;;25.40;84.70;;;;;;5013477;28;20234;-61
2022/08/22 09:02:54;;;;;;;5.28;3.47;;;25.50;85.00;;;;;;5013512;28;20226;-60
2022/08/22 09:05:57;;;;;;;3.60;3.30;;;25.50;85.00;;;;;;5013561;28;20218;-61
2022/08/22 09:08:51;;;;;;;4.13;3.17;;;25.60;85.30;;;;;;5005840;28;20249;-60
2022/08/22 09:11:46;;;;;;;5.43;3.53;;;25.80;85.30;;;;;;5012245;28;20203;-60
2022/08/22 09:14:30;;;;;;;4.60;3.35;;;26.10;85.40;;;;;;5012870;28;20206;-59
2022/08/22 09:17:35;;;;;;;4.13;3.50;;;26.20;84.00;;;;;;5013764;28;20391;-66
2022/08/22 09:20:22;;;;;;;4.60;3.15;;;26.30;85.10;;;;;;5026499;28;20198;-63
2022/08/22 09:23:29;;;;;;;6.60;3.03;;;26.30;85.10;;;;;;5033061;28;20232;-59
2022/08/22 09:26:01;;;;;;;4.07;3.47;;;26.50;84.90;;;;;;5032983;28;20210;-60
2022/08/22 09:28:34;;;;;;;5.35;3.60;;;26.70;84.90;;;;;;5032164;28;20850;-61
2022/08/22 09:31:13;;;;;;;3.40;3.03;;;26.80;85.00;;;;;;5033372;28;20212;-60
2022/08/22 09:33:51;;;;;;;5.43;3.28;;;26.80;84.40;;;;;;5032648;28;20265;-61
2022/08/22 09:36:22;;;;;;;3.33;2.85;;;26.80;84.80;;;;;;5032866;28;20299;-63
2022/08/22 09:38:57;;;;;;;3.50;3.20;;;27.00;83.00;;;;;;5032573;28;20227;-62
2022/08/22 09:41:38;;;;;;;4.53;2.88;;;27.00;82.40;;;;;;5033559;28;20206;-60
2022/08/22 09:44:16;;;;;;;3.50;3.20;;;27.00;83.10;;;;;;5033225;28;20665;-60
2022/08/22 09:46:58;;;;;;;3.60;2.88;;;27.10;81.90;;;;;;5033672;28;20205;-64
2022/08/22 09:49:37;;;;;;;5.13;3.22;;;27.20;82.50;;;;;;5033422;28;20229;-59
2022/08/22 09:52:09;;;;;;;3.63;3.33;;;27.40;81.60;;;;;;5033119;28;20206;-59
2022/08/22 09:54:44;;;;;;;4.90;3.38;;;27.60;81.30;;;;;;5032910;28;20300;-59
2022/08/22 09:57:19;;;;;;;4.43;3.42;;;27.40;80.00;;;;;;5033399;28;20257;-60
2022/08/22 10:00:20;;;;;;;3.67;3.30;;;27.30;81.60;;;;;;5033884;28;20593;-60
2022/08/22 10:03:11;;;;;;;3.42;3.13;;;27.50;80.90;;;;;;5033441;28;20230;-60
2022/08/22 10:05:45;;;;;;;4.75;3.00;;;27.70;80.10;;;;;;5033158;28;20300;-60
2022/08/22 10:08:39;;;;;;;4.90;3.40;;;27.70;78.20;;;;;;5034269;28;20269;-62
2022/08/22 10:11:17;;;;;;;3.53;3.10;;;27.80;78.60;;;;;;5033920;28;20356;-62
2022/08/22 10:13:54;;;;;;;3.22;2.92;;;27.90;76.70;;;;;;5033445;28;20241;-61
2022/08/22 10:16:33;;;;;;;4.32;2.80;;;27.80;77.70;;;;;;5033401;28;20213;-61
2022/08/22 10:19:11;;;;;;;6.30;3.00;;;27.90;76.80;;;;;;5034829;28;20268;-62
2022/08/22 10:21:46;;;;;;;3.25;2.95;;;28.10;75.40;;;;;;5034023;28;20201;-62
2022/08/22 10:24:22;;;;;;;4.38;2.88;;;28.40;74.60;;;;;;5033916;28;20215;-61
2022/08/22 10:26:53;;;;;;;2.78;2.55;;;28.70;72.50;;;;;;5033774;28;20206;-62
2022/08/22 10:29:42;;;;;;;3.88;2.75;;;28.80;71.60;;;;;;5034216;28;20289;-61
2022/08/22 10:32:26;;;;;;;3.38;3.08;;;29.10;71.80;;;;;;5034871;28;20611;-62
2022/08/22 10:34:57;;;;;;;4.72;2.53;;;29.30;70.40;;;;;;5032881;28;20596;-62
2022/08/22 10:37:32;;;;;;;3.03;2.72;;;29.70;69.30;;;;;;5032908;28;20690;-62
2022/08/22 10:40:04;;;;;;;2.72;2.53;;;30.10;67.50;;;;;;5033572;28;20591;-62
2022/08/22 10:42:36;;;;;;;4.43;2.70;;;30.50;66.60;;;;;;5030735;28;20222;-64
2022/08/22 10:45:20;;;;;;;3.40;2.80;;;30.80;65.70;;;;;;5032882;28;20201;-64
2022/08/22 10:48:29;;;;;;;3.33;2.72;;;31.20;64.90;;;;;;5032299;28;20379;-64
2022/08/22 10:51:13;;;;;;;3.38;2.70;;;31.60;64.30;;;;;;5031903;28;20241;-62
2022/08/22 10:54:08;;;;;;;3.47;2.55;;;31.90;61.80;;;;;;5037169;28;20237;-61
2022/08/22 10:56:40;;;;;;;3.42;2.83;;;32.10;59.80;;;;;;5037689;28;20237;-61
2022/08/22 10:59:21;;;;;;;3.08;2.75;;;32.30;58.60;;;;;;5038433;28;20698;-63
2022/08/22 11:02:13;;;;;;;3.13;2.55;;;32.40;59.30;;;;;;5038062;28;20489;-63
2022/08/22 11:05:05;;;;;;;3.63;2.30;;;32.10;59.50;;;;;;5037343;28;20206;-60
2022/08/22 11:07:46;;;;;;;4.18;2.53;;;31.90;59.40;;;;;;5036130;28;20234;-61
2022/08/22 11:10:23;;;;;;;2.75;2.50;;;31.90;59.50;;;;;;5036823;28;20210;-61
2022/08/22 11:13:06;;;;;;;3.40;2.50;;;31.90;59.20;;;;;;5036262;28;20348;-62
2022/08/22 11:16:01;;;;;;;4.43;2.72;;;32.00;58.20;;;;;;5036104;28;20720;-62
2022/08/22 11:18:54;;;;;;;5.90;2.65;;;32.30;57.30;;;;;;5036132;28;20436;-62
2022/08/22 11:21:30;;;;;;;2.83;2.20;;;32.50;55.50;;;;;;5035461;28;20210;-62
2022/08/22 11:24:10;;;;;;;3.20;2.60;;;32.80;55.30;;;;;;5034585;28;20463;-62
2022/08/22 11:26:43;;;;;;;4.07;2.40;;;32.90;55.50;;;;;;5035324;28;20216;-62
2022/08/22 11:29:38;;;;;;;3.55;2.60;;;32.90;54.80;;;;;;5034603;28;20280;-61
2022/08/22 11:32:13;;;;;;;2.70;2.30;;;33.10;52.50;;;;;;5034381;28;20229;-62
2022/08/22 11:34:51;;;;;;;2.90;2.47;;;33.10;54.20;;;;;;5034506;28;20217;-62
2022/08/22 11:37:46;;;;;;;4.57;2.20;;;32.90;53.40;;;;;;5034220;28;20236;-62
2022/08/22 11:40:30;;;;;;;3.33;2.13;;;32.70;52.70;;;;;;5034050;28;20290;-61
2022/08/22 11:43:09;;;;;;;2.53;2.22;;;32.70;52.20;;;;;;5034115;28;20230;-60
2022/08/22 11:45:42;;;;;;;4.00;2.42;;;32.50;52.30;;;;;;5034442;28;20234;-61
2022/08/22 11:48:19;;;;;;;3.20;2.50;;;32.40;53.40;;;;;;5033855;28;20608;-62
2022/08/22 11:50:50;;;;;;;2.47;2.15;;;32.30;55.80;;;;;;5033859;28;20209;-61
2022/08/22 11:53:24;;;;;;;4.47;2.25;;;32.00;56.40;;;;;;5033638;28;20202;-61
2022/08/22 11:56:05;;;;;;;4.90;2.65;;;31.60;57.50;;;;;;5033804;28;20201;-62
2022/08/22 11:58:43;;;;;;;6.25;2.75;;;31.30;57.90;;;;;;5033952;28;20720;-62
2022/08/22 12:01:15;;;;;;;3.47;2.70;;;31.20;58.10;;;;;;5034000;28;20206;-61
2022/08/22 12:03:59;;;;;;;4.53;2.58;;;31.00;58.10;;;;;;5034080;28;20218;-62
2022/08/22 12:06:40;;;;;;;4.97;2.40;;;30.90;58.60;;;;;;5034576;28;20647;-62
2022/08/22 12:09:20;;;;;;;4.90;2.25;;;30.80;58.20;;;;;;5033861;28;20237;-61
2022/08/22 12:12:01;;;;;;;5.35;2.50;;;30.70;58.40;;;;;;5034721;28;20561;-62
2022/08/22 12:14:34;;;;;;;2.97;2.40;;;30.70;58.60;;;;;;5035164;28;20210;-63
2022/08/22 12:17:19;;;;;;;2.50;2.30;;;30.70;58.50;;;;;;5033999;28;20210;-60
2022/08/22 12:19:56;;;;;;;5.32;2.50;;;30.70;58.50;;;;;;5034705;28;20258;-59
2022/08/22 12:22:53;;;;;;;2.95;2.65;;;30.60;58.60;;;;;;5033582;28;20236;-60
2022/08/22 12:25:35;;;;;;;4.65;2.60;;;30.60;59.40;;;;;;5034671;28;20216;-61
2022/08/22 12:28:18;;;;;;;4.05;2.67;;;30.50;59.30;;;;;;5034316;28;20320;-65
2022/08/22 12:31:00;;;;;;;4.95;2.55;;;30.50;58.90;;;;;;5036715;28;20198;-62
2022/08/22 12:33:40;;;;;;;4.90;2.92;;;30.50;58.60;;;;;;5036176;28;20340;-63
2022/08/22 12:36:40;;;;;;;4.53;2.50;;;30.60;59.00;;;;;;5037735;28;20206;-62
2022/08/22 12:39:36;;;;;;;3.47;2.50;;;30.70;58.00;;;;;;5036934;28;20257;-64
2022/08/22 12:42:25;;;;;;;2.65;2.38;;;31.00;57.70;;;;;;5036025;28;20622;-63
2022/08/22 12:45:12;;;;;;;3.00;2.22;;;30.90;57.40;;;;;;5037102;28;20214;-62
2022/08/22 12:47:51;;;;;;;3.40;2.40;;;30.90;57.50;;;;;;5035835;28;20261;-62
2022/08/22 12:50:28;;;;;;;2.55;2.17;;;30.90;57.50;;;;;;5035726;28;20213;-64
2022/08/22 12:53:25;;;;;;;3.47;2.55;;;30.80;56.80;;;;;;5034932;28;20229;-64
2022/08/22 12:56:04;;;;;;;3.75;2.30;;;30.90;56.80;;;;;;5033222;28;20225;-65
2022/08/22 12:59:03;;;;;;;4.93;2.28;;;31.10;56.60;;;;;;5033342;28;20593;-63
2022/08/22 13:01:36;;;;;;;2.90;2.20;;;31.30;56.40;;;;;;5017540;28;20599;-61
2022/08/22 13:04:06;;;;;;;3.10;2.40;;;31.30;56.00;;;;;;5034028;28;20392;-61
2022/08/22 13:06:48;;;;;;;4.88;2.20;;;31.50;55.80;;;;;;5033745;28;20674;-62
2022/08/22 13:09:19;;;;;;;2.47;2.10;;;31.50;55.20;;;;;;5033766;28;20245;-59
2022/08/22 13:11:49;;;;;;;3.60;2.30;;;31.30;54.80;;;;;;5034195;28;20241;-59
2022/08/22 13:14:22;;;;;;;3.25;2.10;;;31.20;54.80;;;;;;5032713;28;20202;-59
2022/08/22 13:16:54;;;;;;;4.65;2.45;;;31.10;55.00;;;;;;5033679;28;20217;-59
2022/08/22 13:19:25;;;;;;;2.67;2.20;;;31.10;54.80;;;;;;5032630;28;20209;-59
2022/08/22 13:21:58;;;;;;;4.03;2.63;;;31.10;54.80;;;;;;5033586;28;20217;-64
2022/08/22 13:24:33;;;;;;;4.40;2.20;;;31.30;54.90;;;;;;5032251;28;20705;-60
2022/08/22 13:27:05;;;;;;;3.42;2.10;;;31.50;55.80;;;;;;5033030;28;20639;-60
2022/08/22 13:29:40;;;;;;;3.90;2.53;;;31.70;54.70;;;;;;5033057;28;20242;-62
2022/08/22 13:32:18;;;;;;;3.35;2.10;;;31.80;54.70;;;;;;5032699;28;20209;-60
2022/08/22 13:34:48;;;;;;;2.97;2.20;;;31.80;54.20;;;;;;5031283;28;20198;-60
2022/08/22 13:37:17;;;;;;;3.80;2.20;;;31.70;54.30;;;;;;5031157;28;20240;-62
2022/08/22 13:39:46;;;;;;;3.42;2.70;;;31.40;54.70;;;;;;5031991;28;20206;-62
2022/08/22 13:42:17;;;;;;;3.83;2.25;;;31.30;55.10;;;;;;5032106;28;20198;-64
2022/08/22 13:44:49;;;;;;;4.65;2.33;;;31.30;55.10;;;;;;5031891;28;20230;-62
2022/08/22 13:47:21;;;;;;;3.75;2.20;;;31.00;55.20;;;;;;5031956;28;20222;-62
2022/08/22 13:49:51;;;;;;;3.97;2.40;;;30.70;55.40;;;;;;5032252;28;20187;-62
2022/08/22 13:52:27;;;;;;;6.35;2.85;;;30.60;55.90;;;;;;5033020;28;20300;-63